createdAt,value
2023-04-20T00:01:11.800Z,3.70
2023-04-20T00:03:38.890Z,3.73
2023-04-20T00:06:06.008Z,4.33
2023-04-20T00:08:32.960Z,4.00
2023-04-20T00:10:59.895Z,3.47
2023-04-20T00:13:26.876Z,3.43
2023-04-20T00:15:53.845Z,4.07
2023-04-20T00:18:20.737Z,4.00
2023-04-20T00:20:48.738Z,3.83
2023-04-20T00:23:16.013Z,3.53
2023-04-20T00:25:42.892Z,3.60
2023-04-20T00:28:09.750Z,3.53
2023-04-20T00:30:37.039Z,3.53
2023-04-20T00:33:04.149Z,3.33
2023-04-20T00:35:31.101Z,3.40
2023-04-20T00:37:58.034Z,3.13
2023-04-20T00:40:25.000Z,3.40
2023-04-20T00:42:51.937Z,3.63
2023-04-20T00:45:19.158Z,3.90
2023-04-20T00:47:46.360Z,3.43
2023-04-20T00:50:13.341Z,3.17
2023-04-20T00:52:41.181Z,3.30
2023-04-20T00:55:08.573Z,3.47
2023-04-20T00:57:36.261Z,3.10
2023-04-20T01:00:03.816Z,3.00
2023-04-20T01:02:31.826Z,3.20
2023-04-20T01:04:59.112Z,3.07
2023-04-20T01:07:26.040Z,2.97
2023-04-20T01:09:52.932Z,3.63
2023-04-20T01:12:19.815Z,3.10
2023-04-20T01:14:46.737Z,2.67
2023-04-20T01:17:15.171Z,3.47
2023-04-20T01:19:42.156Z,2.80
2023-04-20T01:22:09.088Z,2.73
2023-04-20T01:24:36.001Z,3.23
2023-04-20T01:27:03.090Z,3.13
2023-04-20T01:29:30.382Z,3.40
2023-04-20T01:31:57.363Z,3.43
2023-04-20T01:34:24.240Z,3.37
2023-04-20T01:36:51.171Z,3.33
2023-04-20T01:39:18.733Z,2.93
2023-04-20T01:41:45.917Z,3.40
2023-04-20T01:44:12.986Z,3.40
2023-04-20T01:46:40.574Z,3.40
2023-04-20T01:49:08.149Z,3.90
2023-04-20T01:51:37.390Z,3.47
2023-04-20T01:54:04.351Z,3.33
2023-04-20T01:56:31.399Z,3.63
2023-04-20T01:58:58.838Z,3.97
2023-04-20T02:01:25.860Z,3.70
2023-04-20T02:03:53.015Z,3.20
2023-04-20T02:06:20.189Z,3.17
2023-04-20T02:08:47.094Z,2.80
2023-04-20T02:11:14.146Z,3.53
2023-04-20T02:13:41.071Z,3.17
2023-04-20T02:16:08.125Z,3.97
2023-04-20T02:18:36.042Z,3.70
2023-04-20T02:21:03.539Z,3.50
2023-04-20T02:23:30.851Z,3.37
2023-04-20T02:25:57.754Z,4.37
2023-04-20T02:28:24.657Z,2.90
2023-04-20T02:30:51.958Z,2.87
2023-04-20T02:33:21.143Z,3.50
2023-04-20T02:35:50.229Z,2.73
2023-04-20T02:38:17.070Z,3.23
2023-04-20T02:40:43.915Z,3.90
2023-04-20T02:43:11.092Z,3.10
2023-04-20T02:45:37.979Z,2.80
2023-04-20T02:48:05.901Z,3.10
2023-04-20T02:50:33.038Z,3.07
2023-04-20T02:53:00.961Z,2.67
2023-04-20T02:55:27.910Z,3.30
2023-04-20T02:57:54.833Z,2.37
2023-04-20T03:00:21.873Z,2.67
2023-04-20T03:02:49.251Z,3.20
2023-04-20T03:05:16.299Z,2.87
2023-04-20T03:07:43.164Z,3.27
2023-04-20T03:10:10.505Z,3.13
2023-04-20T03:12:37.419Z,3.17
2023-04-20T03:15:06.459Z,3.23
2023-04-20T03:17:33.362Z,3.83
2023-04-20T03:20:00.320Z,3.80
2023-04-20T03:22:27.195Z,3.67
2023-04-20T03:24:54.069Z,3.10
2023-04-20T03:27:21.082Z,2.90
2023-04-20T03:29:48.958Z,3.30
2023-04-20T03:32:15.867Z,3.53
2023-04-20T03:34:43.122Z,3.00
2023-04-20T03:37:10.054Z,2.93
2023-04-20T03:39:36.910Z,3.07
2023-04-20T03:42:03.964Z,2.47
2023-04-20T03:44:30.830Z,2.90
2023-04-20T03:46:57.727Z,2.20
2023-04-20T03:49:25.638Z,2.80
2023-04-20T03:51:52.482Z,2.87
2023-04-20T03:54:19.349Z,2.77
2023-04-20T03:56:46.566Z,2.30
2023-04-20T03:59:13.437Z,2.50
2023-04-20T04:01:40.427Z,2.73
2023-04-20T04:04:07.651Z,2.40
2023-04-20T04:06:34.873Z,2.67
2023-04-20T04:09:01.818Z,2.40
2023-04-20T04:11:30.188Z,3.17
2023-04-20T04:13:59.288Z,2.57
2023-04-20T04:16:26.283Z,2.60
2023-04-20T04:18:53.228Z,2.73
2023-04-20T04:21:20.118Z,2.60
2023-04-20T04:23:47.537Z,2.70
2023-04-20T04:26:14.508Z,2.47
2023-04-20T04:28:41.477Z,2.00
2023-04-20T04:31:09.949Z,2.83
2023-04-20T04:33:36.984Z,2.70
2023-04-20T04:36:04.920Z,2.60
2023-04-20T04:38:33.447Z,2.70
2023-04-20T04:41:00.706Z,2.83
2023-04-20T04:43:27.671Z,2.93
2023-04-20T04:45:55.571Z,2.97
2023-04-20T04:48:23.276Z,2.60
2023-04-20T04:50:50.206Z,3.40
2023-04-20T04:53:17.168Z,3.60
2023-04-20T04:55:44.139Z,3.27
2023-04-20T04:58:11.053Z,3.10
2023-04-20T05:00:38.903Z,3.40
2023-04-20T05:03:06.296Z,3.37
2023-04-20T05:05:33.583Z,3.30
2023-04-20T05:08:00.598Z,3.50
2023-04-20T05:10:27.624Z,3.30
2023-04-20T05:12:54.486Z,3.50
2023-04-20T05:15:22.493Z,3.13
2023-04-20T05:17:50.125Z,3.43
2023-04-20T05:20:17.156Z,3.80
2023-04-20T05:22:45.230Z,4.00
2023-04-20T05:25:14.006Z,4.23
2023-04-20T05:27:41.143Z,5.00
2023-04-20T05:30:19.538Z,4.83
2023-04-20T05:32:51.109Z,4.17
2023-04-20T05:35:19.284Z,4.53
2023-04-20T05:37:47.765Z,4.10
2023-04-20T05:40:15.867Z,4.17
2023-04-20T05:42:42.943Z,3.37
2023-04-20T05:45:10.652Z,3.47
2023-04-20T05:47:37.665Z,3.00
2023-04-20T05:50:06.019Z,2.63
2023-04-20T05:52:33.024Z,2.90
2023-04-20T05:55:00.259Z,3.47
2023-04-20T05:57:27.172Z,3.03
2023-04-20T05:59:56.066Z,3.60
2023-04-20T06:02:23.194Z,3.73
2023-04-20T06:04:50.371Z,3.93
2023-04-20T06:07:18.312Z,3.17
2023-04-20T06:09:45.287Z,3.17
2023-04-20T06:12:12.375Z,3.90
2023-04-20T06:14:39.362Z,2.80
2023-04-20T06:17:06.282Z,3.43
2023-04-20T06:19:33.159Z,3.67
2023-04-20T06:22:01.121Z,3.67
2023-04-20T06:24:28.353Z,3.33
2023-04-20T06:26:55.331Z,3.07
2023-04-20T06:29:22.224Z,3.40
2023-04-20T06:31:49.206Z,3.20
2023-04-20T06:34:16.623Z,3.50
2023-04-20T06:36:43.948Z,2.60
2023-04-20T06:39:13.656Z,2.87
2023-04-20T06:41:40.661Z,2.80
2023-04-20T06:44:07.584Z,3.03
2023-04-20T06:46:34.731Z,2.70
2023-04-20T06:49:01.891Z,3.30
2023-04-20T06:51:29.485Z,3.17
2023-04-20T06:53:56.851Z,2.93
2023-04-20T06:56:23.932Z,2.83
2023-04-20T06:58:51.100Z,3.80
2023-04-20T07:01:18.128Z,3.17
2023-04-20T07:03:47.122Z,2.57
2023-04-20T07:06:14.516Z,4.97
2023-04-20T07:08:41.675Z,3.30
2023-04-20T07:11:08.625Z,3.60
2023-04-20T07:13:35.545Z,3.90
2023-04-20T07:16:03.091Z,3.40
2023-04-20T07:18:30.039Z,3.47
2023-04-20T07:20:56.962Z,2.70
2023-04-20T07:23:23.944Z,3.57
2023-04-20T07:25:50.885Z,2.77
2023-04-20T07:28:17.765Z,3.33
2023-04-20T07:30:44.739Z,4.17
2023-04-20T07:33:11.912Z,3.70
2023-04-20T07:35:38.818Z,4.83
2023-04-20T07:38:06.194Z,4.03
2023-04-20T07:40:34.076Z,3.97
2023-04-20T07:43:00.989Z,3.77
2023-04-20T07:45:28.994Z,3.33
2023-04-20T07:47:57.550Z,4.20
2023-04-20T07:50:24.616Z,4.10
2023-04-20T07:52:51.553Z,3.77
2023-04-20T07:55:18.580Z,3.63
2023-04-20T07:57:45.706Z,3.80
2023-04-20T08:00:13.518Z,3.33
2023-04-20T08:02:40.957Z,3.60
2023-04-20T08:05:10.347Z,3.63
2023-04-20T08:07:38.065Z,3.70
2023-04-20T08:10:06.584Z,4.03
2023-04-20T08:12:33.967Z,4.47
2023-04-20T08:15:04.489Z,4.07
2023-04-20T08:17:31.622Z,4.03
2023-04-20T08:19:59.611Z,3.10
2023-04-20T08:22:30.082Z,3.67
2023-04-20T08:24:57.791Z,3.10
2023-04-20T08:27:25.571Z,3.10
2023-04-20T08:29:52.511Z,3.67
2023-04-20T08:32:22.754Z,3.13
2023-04-20T08:34:50.346Z,4.37
2023-04-20T08:37:18.457Z,3.17
2023-04-20T08:39:45.618Z,2.70
2023-04-20T08:42:12.730Z,3.17
2023-04-20T08:44:39.906Z,3.90
2023-04-20T08:47:08.997Z,3.03
2023-04-20T08:49:36.699Z,3.43
2023-04-20T08:52:03.777Z,3.50
2023-04-20T08:54:30.702Z,3.17
2023-04-20T08:56:58.799Z,3.57
2023-04-20T08:59:25.911Z,3.50
2023-04-20T09:01:53.849Z,5.23
2023-04-20T09:04:26.957Z,3.80
2023-04-20T09:06:56.296Z,3.30
2023-04-20T09:09:24.390Z,3.67
2023-04-20T09:12:09.104Z,4.07
2023-04-20T09:15:02.549Z,4.60
2023-04-20T09:17:37.347Z,4.10
2023-04-20T09:20:05.393Z,3.70
2023-04-20T09:22:34.159Z,4.40
2023-04-20T09:25:12.909Z,4.03
2023-04-20T09:27:39.938Z,4.10
2023-04-20T09:30:07.886Z,4.07
2023-04-20T09:32:35.795Z,3.83
2023-04-20T09:35:02.738Z,3.90
2023-04-20T09:37:29.693Z,4.30
2023-04-20T09:40:00.898Z,4.10
2023-04-20T09:42:29.098Z,5.00
2023-04-20T09:44:57.432Z,4.47
2023-04-20T09:47:26.869Z,5.00
2023-04-20T09:49:54.769Z,4.70
2023-04-20T09:52:22.438Z,4.23
2023-04-20T09:54:51.491Z,4.07
2023-04-20T09:57:19.886Z,5.43
2023-04-20T09:59:47.564Z,4.57
2023-04-20T10:02:15.237Z,4.63
2023-04-20T10:04:58.853Z,4.30
2023-04-20T10:07:30.634Z,5.43
2023-04-20T10:10:11.649Z,4.87
2023-04-20T10:12:52.807Z,4.50
2023-04-20T10:15:21.885Z,4.63
2023-04-20T10:17:49.487Z,3.90
2023-04-20T10:20:26.548Z,3.57
2023-04-20T10:22:54.685Z,3.83
2023-04-20T10:25:27.282Z,4.20
2023-04-20T10:28:04.842Z,3.03
2023-04-20T10:30:33.306Z,3.67
2023-04-20T10:33:08.474Z,3.53
2023-04-20T10:36:01.900Z,3.77
2023-04-20T10:38:30.494Z,3.97
2023-04-20T10:40:58.132Z,3.60
2023-04-20T10:43:25.485Z,3.23
2023-04-20T10:45:52.533Z,3.07
2023-04-20T10:48:19.556Z,3.80
2023-04-20T10:50:46.559Z,4.30
2023-04-20T10:53:23.977Z,4.00
2023-04-20T10:56:01.247Z,3.97
2023-04-20T10:58:28.630Z,4.00
2023-04-20T11:01:03.908Z,4.40
2023-04-20T11:03:32.356Z,3.80
2023-04-20T11:06:03.679Z,4.43
2023-04-20T11:08:42.016Z,4.60
2023-04-20T11:11:19.159Z,4.90
2023-04-20T11:13:46.307Z,3.83
2023-04-20T11:16:15.062Z,4.27
2023-04-20T11:18:55.658Z,4.90
2023-04-20T11:21:23.138Z,4.83
2023-04-20T11:23:50.479Z,4.70
2023-04-20T11:26:17.606Z,4.07
2023-04-20T11:28:55.212Z,5.30
2023-04-20T11:31:23.469Z,4.87
2023-04-20T11:33:50.846Z,5.10
2023-04-20T11:36:26.602Z,4.87
2023-04-20T11:38:53.624Z,4.67
2023-04-20T11:41:21.841Z,4.73
2023-04-20T11:43:49.220Z,4.70
2023-04-20T11:46:20.856Z,4.70
2023-04-20T11:48:48.072Z,4.50
2023-04-20T11:51:15.704Z,4.80
2023-04-20T11:53:42.777Z,4.00
2023-04-20T11:56:09.908Z,5.07
2023-04-20T11:58:37.053Z,4.70
2023-04-20T12:01:05.499Z,4.40
2023-04-20T12:03:32.923Z,4.83
2023-04-20T12:06:00.349Z,5.10
2023-04-20T12:08:27.629Z,5.40
2023-04-20T12:10:56.628Z,4.97
2023-04-20T12:13:25.118Z,5.17
2023-04-20T12:15:52.074Z,5.20
2023-04-20T12:18:19.856Z,5.27
2023-04-20T12:20:50.207Z,5.47
2023-04-20T12:23:17.159Z,5.47
2023-04-20T12:25:44.085Z,5.40
2023-04-20T12:28:11.083Z,5.20
2023-04-20T12:30:38.033Z,6.13
2023-04-20T12:33:05.188Z,5.70
2023-04-20T12:35:33.225Z,6.80
2023-04-20T12:38:00.548Z,6.10
2023-04-20T12:40:27.475Z,6.53
2023-04-20T12:42:54.458Z,6.23
2023-04-20T12:45:21.589Z,6.40
2023-04-20T12:47:48.586Z,6.03
2023-04-20T12:50:15.724Z,6.50
2023-04-20T12:52:42.669Z,7.47
2023-04-20T12:55:09.942Z,7.17
2023-04-20T12:57:37.189Z,6.57
2023-04-20T13:00:06.244Z,8.63
2023-04-20T13:02:33.793Z,7.77
2023-04-20T13:05:00.994Z,7.77
2023-04-20T13:07:28.097Z,8.10
2023-04-20T13:09:55.113Z,7.97
2023-04-20T13:12:22.073Z,8.70
2023-04-20T13:14:49.308Z,8.93
2023-04-20T13:17:16.474Z,9.73
2023-04-20T13:19:44.551Z,9.77
2023-04-20T13:22:14.930Z,11.13
2023-04-20T13:24:43.848Z,10.13
2023-04-20T13:27:11.143Z,7.63
2023-04-20T13:29:39.234Z,7.60
2023-04-20T13:32:06.506Z,8.30
2023-04-20T13:34:33.573Z,8.50
2023-04-20T13:37:00.637Z,7.50
2023-04-20T13:39:27.971Z,8.67
2023-04-20T13:41:55.062Z,7.30
2023-04-20T13:44:22.018Z,5.80
2023-04-20T13:46:49.018Z,6.07
2023-04-20T13:49:17.033Z,6.10
2023-04-20T13:51:43.999Z,5.57
2023-04-20T13:54:10.942Z,5.57
2023-04-20T13:56:37.958Z,5.40
2023-04-20T13:59:04.972Z,5.57
2023-04-20T14:01:32.067Z,6.30
2023-04-20T14:03:59.361Z,6.40
2023-04-20T14:06:28.924Z,5.63
2023-04-20T14:08:56.140Z,6.50
2023-04-20T14:11:23.328Z,5.20
2023-04-20T14:13:50.382Z,5.47
2023-04-20T14:16:17.428Z,5.43
2023-04-20T14:18:45.554Z,5.60
2023-04-20T14:21:12.875Z,5.40
2023-04-20T14:23:39.808Z,5.43
2023-04-20T14:26:07.477Z,5.60
2023-04-20T14:28:34.494Z,5.90
2023-04-20T14:31:02.564Z,5.50
2023-04-20T14:33:29.601Z,5.43
2023-04-20T14:35:56.894Z,5.20
2023-04-20T14:38:24.852Z,4.90
2023-04-20T14:40:52.547Z,5.30
2023-04-20T14:43:19.553Z,5.70
2023-04-20T14:45:46.883Z,5.57
2023-04-20T14:48:17.049Z,5.80
2023-04-20T14:50:43.963Z,5.70
2023-04-20T14:53:12.151Z,6.00
2023-04-20T14:55:39.516Z,5.43
2023-04-20T14:58:06.406Z,5.77
2023-04-20T15:00:33.549Z,5.43
2023-04-20T15:03:01.029Z,5.60
2023-04-20T15:05:28.744Z,5.63
2023-04-20T15:07:57.654Z,5.30
2023-04-20T15:10:24.787Z,5.67
2023-04-20T15:12:51.805Z,5.97
2023-04-20T15:15:18.771Z,5.43
2023-04-20T15:17:47.082Z,6.00
2023-04-20T15:20:15.541Z,5.73
2023-04-20T15:22:43.721Z,5.53
2023-04-20T15:25:10.909Z,4.97
2023-04-20T15:27:38.135Z,5.20
2023-04-20T15:30:06.204Z,4.63
2023-04-20T15:32:36.034Z,4.47
2023-04-20T15:35:03.088Z,4.57
2023-04-20T15:37:30.260Z,5.00
2023-04-20T15:39:59.231Z,5.30
2023-04-20T15:42:27.474Z,5.27
2023-04-20T15:44:54.521Z,4.63
2023-04-20T15:47:21.605Z,5.47
2023-04-20T15:49:48.572Z,4.97
2023-04-20T15:52:15.523Z,6.23
2023-04-20T15:54:42.593Z,5.83
2023-04-20T15:57:09.720Z,5.93
2023-04-20T15:59:36.683Z,5.30
2023-04-20T16:02:03.770Z,5.33
2023-04-20T16:04:30.814Z,5.90
2023-04-20T16:07:00.030Z,6.37
2023-04-20T16:09:27.079Z,5.33
2023-04-20T16:11:54.009Z,5.37
2023-04-20T16:14:21.119Z,5.03
2023-04-20T16:16:48.283Z,5.80
2023-04-20T16:19:15.187Z,5.80
2023-04-20T16:21:42.153Z,5.83
2023-04-20T16:24:09.147Z,5.23
2023-04-20T16:26:36.404Z,5.40
2023-04-20T16:29:03.652Z,5.83
2023-04-20T16:31:31.985Z,5.43
2023-04-20T16:33:59.002Z,5.60
2023-04-20T16:36:27.084Z,5.73
2023-04-20T16:38:54.123Z,6.20
2023-04-20T16:41:21.785Z,5.87
2023-04-20T16:43:48.721Z,5.70
2023-04-20T16:46:22.301Z,5.27
2023-04-20T16:48:50.798Z,5.20
2023-04-20T16:51:17.742Z,5.73
2023-04-20T16:53:45.491Z,5.80
2023-04-20T16:56:13.026Z,5.97
2023-04-20T16:58:40.021Z,6.50
2023-04-20T17:01:07.688Z,6.43
2023-04-20T17:03:35.075Z,6.17
2023-04-20T17:06:07.486Z,6.60
2023-04-20T17:08:34.825Z,6.30
2023-04-20T17:11:02.039Z,6.27
2023-04-20T17:13:28.998Z,5.80
2023-04-20T17:15:56.181Z,6.30
2023-04-20T17:18:23.213Z,6.27
2023-04-20T17:20:50.449Z,6.13
2023-04-20T17:23:18.241Z,6.43
2023-04-20T17:25:47.389Z,5.77
2023-04-20T17:28:14.790Z,6.20
2023-04-20T17:30:42.024Z,5.77
2023-04-20T17:33:15.170Z,5.63
2023-04-20T17:35:42.257Z,6.03
2023-04-20T17:38:09.292Z,6.00
2023-04-20T17:40:36.243Z,5.87
2023-04-20T17:43:03.316Z,6.10
2023-04-20T17:45:30.396Z,6.07
2023-04-20T17:47:57.352Z,6.07
2023-04-20T17:50:24.711Z,6.33
2023-04-20T17:52:51.877Z,5.73
2023-04-20T17:55:20.093Z,6.13
2023-04-20T17:57:47.056Z,5.90
2023-04-20T18:00:14.673Z,5.57
2023-04-20T18:02:41.813Z,6.13
2023-04-20T18:05:09.051Z,5.83
2023-04-20T18:07:36.255Z,5.80
2023-04-20T18:10:04.037Z,6.20
2023-04-20T18:12:30.986Z,6.60
2023-04-20T18:14:57.997Z,6.00
2023-04-20T18:17:25.015Z,6.70
2023-04-20T18:19:52.069Z,7.10
2023-04-20T18:22:19.059Z,6.37
2023-04-20T18:24:45.956Z,6.53
2023-04-20T18:27:13.406Z,6.30
2023-04-20T18:29:40.418Z,6.47
2023-04-20T18:32:07.378Z,6.80
2023-04-20T18:34:34.413Z,7.27
2023-04-20T18:37:01.400Z,7.83
2023-04-20T18:39:28.479Z,7.40
2023-04-20T18:41:55.412Z,7.37
2023-04-20T18:44:22.697Z,7.33
2023-04-20T18:46:49.834Z,7.67
2023-04-20T18:49:18.815Z,8.03
2023-04-20T18:51:45.856Z,8.70
2023-04-20T18:54:12.924Z,8.07
2023-04-20T18:56:39.966Z,8.07
2023-04-20T18:59:08.805Z,9.20
2023-04-20T19:01:40.499Z,8.73
2023-04-20T19:04:11.052Z,8.80
2023-04-20T19:06:38.141Z,8.43
2023-04-20T19:09:07.852Z,8.97
2023-04-20T19:11:35.484Z,8.50
2023-04-20T19:14:02.759Z,9.03
2023-04-20T19:16:31.394Z,8.43
2023-04-20T19:18:59.124Z,8.50
2023-04-20T19:21:27.264Z,8.93
2023-04-20T19:23:54.297Z,8.20
2023-04-20T19:26:21.525Z,8.73
2023-04-20T19:28:48.461Z,9.00
2023-04-20T19:31:17.459Z,9.03
2023-04-20T19:33:44.414Z,8.43
2023-04-20T19:36:11.466Z,9.37
2023-04-20T19:38:38.780Z,9.60
2023-04-20T19:41:06.428Z,9.47
2023-04-20T19:43:33.629Z,10.03
2023-04-20T19:46:00.706Z,10.10
2023-04-20T19:48:27.918Z,9.80
2023-04-20T19:50:59.212Z,8.90
2023-04-20T19:53:26.440Z,9.00
2023-04-20T19:55:53.476Z,8.97
2023-04-20T19:58:20.541Z,9.23
2023-04-20T20:00:47.940Z,9.80
2023-04-20T20:03:16.272Z,9.33
2023-04-20T20:05:44.020Z,9.73
2023-04-20T20:08:11.917Z,9.30
2023-04-20T20:10:39.028Z,9.30
2023-04-20T20:13:06.144Z,8.60
2023-04-20T20:15:33.249Z,9.03
2023-04-20T20:18:00.441Z,9.63
2023-04-20T20:20:30.448Z,8.93
2023-04-20T20:22:57.582Z,9.60
2023-04-20T20:25:25.072Z,9.23
2023-04-20T20:27:52.244Z,9.43
2023-04-20T20:30:19.238Z,10.07
2023-04-20T20:32:46.729Z,10.70
2023-04-20T20:35:13.764Z,10.70
2023-04-20T20:37:41.704Z,10.50
2023-04-20T20:40:15.456Z,10.30
2023-04-20T20:42:45.167Z,10.67
2023-04-20T20:45:13.087Z,10.13
2023-04-20T20:47:43.930Z,9.80
2023-04-20T20:50:13.186Z,9.23
2023-04-20T20:52:40.469Z,9.73
2023-04-20T20:55:08.931Z,10.07
2023-04-20T20:57:36.087Z,10.23
2023-04-20T21:00:09.079Z,10.10
2023-04-20T21:02:37.221Z,9.80
2023-04-20T21:05:05.878Z,9.97
2023-04-20T21:07:33.087Z,10.10
2023-04-20T21:10:00.322Z,9.63
2023-04-20T21:12:27.355Z,9.90
2023-04-20T21:14:54.348Z,10.20
2023-04-20T21:17:21.448Z,10.10
2023-04-20T21:19:48.463Z,10.30
2023-04-20T21:22:15.532Z,9.83
2023-04-20T21:24:42.493Z,11.13
2023-04-20T21:27:09.964Z,10.30
2023-04-20T21:29:36.983Z,10.63
2023-04-20T21:32:04.303Z,10.50
2023-04-20T21:34:31.375Z,9.83
2023-04-20T21:37:04.253Z,9.93
2023-04-20T21:39:34.670Z,11.77
2023-04-20T21:42:01.685Z,10.10
2023-04-20T21:44:29.288Z,10.53
2023-04-20T21:46:56.381Z,10.90
2023-04-20T21:49:23.314Z,11.20
2023-04-20T21:51:50.325Z,10.40
2023-04-20T21:54:17.318Z,11.67
2023-04-20T21:56:44.323Z,9.87
2023-04-20T21:59:11.242Z,10.13
2023-04-20T22:01:38.343Z,10.53
2023-04-20T22:04:05.722Z,10.73
2023-04-20T22:06:32.946Z,10.10
2023-04-20T22:08:59.972Z,11.30
2023-04-20T22:11:26.993Z,11.07
2023-04-20T22:13:57.278Z,10.80
2023-04-20T22:16:24.460Z,10.80
2023-04-20T22:18:52.588Z,10.37
2023-04-20T22:21:19.564Z,11.10
2023-04-20T22:23:46.562Z,11.23
2023-04-20T22:26:13.572Z,11.10
2023-04-20T22:28:40.502Z,11.13
2023-04-20T22:31:07.490Z,12.40
2023-04-20T22:33:34.437Z,11.60
2023-04-20T22:36:01.492Z,10.70
2023-04-20T22:38:28.558Z,12.03
2023-04-20T22:40:55.549Z,11.67
2023-04-20T22:43:23.016Z,12.07
2023-04-20T22:45:49.959Z,11.33
2023-04-20T22:48:16.970Z,11.97
2023-04-20T22:50:44.003Z,11.37
2023-04-20T22:53:11.465Z,12.07
2023-04-20T22:55:38.363Z,11.13
2023-04-20T22:58:05.324Z,11.07
2023-04-20T23:00:32.451Z,11.53
2023-04-20T23:02:59.631Z,11.27
2023-04-20T23:05:26.683Z,11.10
2023-04-20T23:07:54.072Z,11.43
2023-04-20T23:10:21.246Z,10.37
2023-04-20T23:12:49.229Z,10.27
2023-04-20T23:15:16.322Z,10.63
2023-04-20T23:17:43.393Z,9.97
2023-04-20T23:20:13.814Z,9.37
2023-04-20T23:22:41.103Z,9.47
2023-04-20T23:25:09.846Z,10.07
2023-04-20T23:27:37.006Z,10.27
2023-04-20T23:30:04.308Z,10.27
2023-04-20T23:32:31.473Z,9.70
2023-04-20T23:34:58.480Z,10.67
2023-04-20T23:37:25.462Z,9.73
2023-04-20T23:39:52.390Z,10.03
2023-04-20T23:42:19.331Z,10.63
2023-04-20T23:44:46.293Z,10.87
2023-04-20T23:47:14.042Z,10.27
2023-04-20T23:49:41.036Z,9.93
2023-04-20T23:52:08.023Z,11.40
2023-04-20T23:54:35.032Z,11.13
2023-04-20T23:57:02.774Z,9.70
2023-04-20T23:59:29.781Z,10.33
